sensor_id;sensor_type;location;lat;lon;timestamp;P1;durP1;ratioP1;P2;durP2;ratioP2
5718;SDS011;2884;47.734;9.244;2022-07-11T00:02:04;3.70;;;1.00;;
5718;SDS011;2884;47.734;9.244;2022-07-11T00:04:31;1.70;;;1.00;;
5718;SDS011;2884;47.734;9.244;2022-07-11T00:06:58;2.90;;;1.00;;
5718;SDS011;2884;47.734;9.244;2022-07-11T00:09:24;5.33;;;1.50;;
5718;SDS011;2884;47.734;9.244;2022-07-11T00:11:49;6.60;;;2.47;;
5718;SDS011;2884;47.734;9.244;2022-07-11T00:14:15;4.67;;;3.20;;
5718;SDS011;2884;47.734;9.244;2022-07-11T00:16:42;3.30;;;2.30;;
5718;SDS011;2884;47.734;9.244;2022-07-11T00:19:08;1.73;;;1.50;;
5718;SDS011;2884;47.734;9.244;2022-07-11T00:21:33;2.93;;;1.20;;
5718;SDS011;2884;47.734;9.244;2022-07-11T00:24:01;1.00;;;0.90;;
5718;SDS011;2884;47.734;9.244;2022-07-11T00:26:32;3.63;;;1.50;;
5718;SDS011;2884;47.734;9.244;2022-07-11T00:29:01;1.67;;;1.13;;
5718;SDS011;2884;47.734;9.244;2022-07-11T00:31:27;2.60;;;0.80;;
5718;SDS011;2884;47.734;9.244;2022-07-11T00:33:53;1.27;;;1.00;;
5718;SDS011;2884;47.734;9.244;2022-07-11T00:36:19;1.50;;;0.90;;
5718;SDS011;2884;47.734;9.244;2022-07-11T00:38:45;1.03;;;0.90;;
5718;SDS011;2884;47.734;9.244;2022-07-11T00:41:11;3.83;;;0.80;;
5718;SDS011;2884;47.734;9.244;2022-07-11T00:43:37;3.10;;;0.90;;
5718;SDS011;2884;47.734;9.244;2022-07-11T00:46:04;1.87;;;1.20;;
5718;SDS011;2884;47.734;9.244;2022-07-11T00:48:30;1.27;;;0.87;;
5718;SDS011;2884;47.734;9.244;2022-07-11T00:50:56;2.87;;;1.07;;
5718;SDS011;2884;47.734;9.244;2022-07-11T00:53:23;1.50;;;0.90;;
5718;SDS011;2884;47.734;9.244;2022-07-11T00:55:49;2.70;;;1.10;;
5718;SDS011;2884;47.734;9.244;2022-07-11T00:58:18;4.00;;;1.17;;
5718;SDS011;2884;47.734;9.244;2022-07-11T01:00:43;3.13;;;1.00;;
5718;SDS011;2884;47.734;9.244;2022-07-11T01:03:28;2.73;;;1.10;;
5718;SDS011;2884;47.734;9.244;2022-07-11T01:05:54;1.77;;;1.60;;
5718;SDS011;2884;47.734;9.244;2022-07-11T01:08:19;3.77;;;3.00;;
5718;SDS011;2884;47.734;9.244;2022-07-11T01:10:45;6.60;;;2.20;;
5718;SDS011;2884;47.734;9.244;2022-07-11T01:13:11;3.90;;;1.43;;
5718;SDS011;2884;47.734;9.244;2022-07-11T01:15:37;2.70;;;1.30;;
5718;SDS011;2884;47.734;9.244;2022-07-11T01:18:03;1.53;;;1.40;;
5718;SDS011;2884;47.734;9.244;2022-07-11T01:20:29;1.50;;;1.20;;
5718;SDS011;2884;47.734;9.244;2022-07-11T01:22:55;2.43;;;1.10;;
5718;SDS011;2884;47.734;9.244;2022-07-11T01:25:47;2.50;;;1.07;;
5718;SDS011;2884;47.734;9.244;2022-07-11T01:28:13;1.77;;;0.90;;
5718;SDS011;2884;47.734;9.244;2022-07-11T01:30:38;3.20;;;1.20;;
5718;SDS011;2884;47.734;9.244;2022-07-11T01:33:04;2.73;;;0.90;;
5718;SDS011;2884;47.734;9.244;2022-07-11T01:35:30;5.70;;;0.80;;
5718;SDS011;2884;47.734;9.244;2022-07-11T01:37:55;4.57;;;1.33;;
5718;SDS011;2884;47.734;9.244;2022-07-11T01:40:21;1.77;;;0.90;;
5718;SDS011;2884;47.734;9.244;2022-07-11T01:42:47;2.37;;;1.00;;
5718;SDS011;2884;47.734;9.244;2022-07-11T01:45:12;3.20;;;1.27;;
5718;SDS011;2884;47.734;9.244;2022-07-11T01:47:39;2.50;;;1.10;;
5718;SDS011;2884;47.734;9.244;2022-07-11T01:50:04;1.37;;;1.10;;
5718;SDS011;2884;47.734;9.244;2022-07-11T01:52:31;1.97;;;1.20;;
5718;SDS011;2884;47.734;9.244;2022-07-11T01:54:57;3.27;;;1.10;;
5718;SDS011;2884;47.734;9.244;2022-07-11T01:57:22;2.13;;;1.17;;
5718;SDS011;2884;47.734;9.244;2022-07-11T01:59:48;2.77;;;1.00;;
5718;SDS011;2884;47.734;9.244;2022-07-11T02:02:14;5.40;;;1.27;;
5718;SDS011;2884;47.734;9.244;2022-07-11T02:04:39;1.57;;;1.00;;
5718;SDS011;2884;47.734;9.244;2022-07-11T02:07:05;3.37;;;1.03;;
5718;SDS011;2884;47.734;9.244;2022-07-11T02:09:31;4.93;;;1.20;;
5718;SDS011;2884;47.734;9.244;2022-07-11T02:11:56;2.60;;;1.00;;
5718;SDS011;2884;47.734;9.244;2022-07-11T02:14:22;3.83;;;1.10;;
5718;SDS011;2884;47.734;9.244;2022-07-11T02:16:48;4.57;;;1.00;;
5718;SDS011;2884;47.734;9.244;2022-07-11T02:19:13;2.50;;;1.10;;
5718;SDS011;2884;47.734;9.244;2022-07-11T02:21:39;4.70;;;1.00;;
5718;SDS011;2884;47.734;9.244;2022-07-11T02:24:04;3.70;;;1.60;;
5718;SDS011;2884;47.734;9.244;2022-07-11T02:26:30;4.57;;;1.73;;
5718;SDS011;2884;47.734;9.244;2022-07-11T02:28:57;1.93;;;1.20;;
5718;SDS011;2884;47.734;9.244;2022-07-11T02:31:24;3.23;;;1.10;;
5718;SDS011;2884;47.734;9.244;2022-07-11T02:33:49;0.97;;;0.90;;
5718;SDS011;2884;47.734;9.244;2022-07-11T02:36:15;4.03;;;1.13;;
5718;SDS011;2884;47.734;9.244;2022-07-11T02:38:41;4.20;;;1.60;;
5718;SDS011;2884;47.734;9.244;2022-07-11T02:41:07;6.53;;;2.40;;
5718;SDS011;2884;47.734;9.244;2022-07-11T02:43:32;6.00;;;4.80;;
5718;SDS011;2884;47.734;9.244;2022-07-11T02:45:58;5.33;;;4.70;;
5718;SDS011;2884;47.734;9.244;2022-07-11T02:48:24;7.53;;;4.40;;
5718;SDS011;2884;47.734;9.244;2022-07-11T02:50:49;6.53;;;4.27;;
5718;SDS011;2884;47.734;9.244;2022-07-11T02:53:15;2.90;;;1.80;;
5718;SDS011;2884;47.734;9.244;2022-07-11T02:55:40;4.47;;;2.03;;
5718;SDS011;2884;47.734;9.244;2022-07-11T02:58:06;2.53;;;1.43;;
5718;SDS011;2884;47.734;9.244;2022-07-11T03:00:31;1.13;;;1.03;;
5718;SDS011;2884;47.734;9.244;2022-07-11T03:02:57;1.20;;;1.10;;
5718;SDS011;2884;47.734;9.244;2022-07-11T03:05:22;1.47;;;1.20;;
5718;SDS011;2884;47.734;9.244;2022-07-11T03:08:07;4.10;;;1.30;;
5718;SDS011;2884;47.734;9.244;2022-07-11T03:10:33;4.20;;;1.23;;
5718;SDS011;2884;47.734;9.244;2022-07-11T03:12:58;1.67;;;1.30;;
5718;SDS011;2884;47.734;9.244;2022-07-11T03:15:24;5.00;;;1.80;;
5718;SDS011;2884;47.734;9.244;2022-07-11T03:17:50;2.00;;;1.17;;
5718;SDS011;2884;47.734;9.244;2022-07-11T03:20:16;5.33;;;1.50;;
5718;SDS011;2884;47.734;9.244;2022-07-11T03:22:41;2.50;;;1.53;;
5718;SDS011;2884;47.734;9.244;2022-07-11T03:25:07;2.03;;;1.40;;
5718;SDS011;2884;47.734;9.244;2022-07-11T03:27:33;3.40;;;1.47;;
5718;SDS011;2884;47.734;9.244;2022-07-11T03:29:58;3.97;;;1.57;;
5718;SDS011;2884;47.734;9.244;2022-07-11T03:32:24;2.20;;;1.50;;
5718;SDS011;2884;47.734;9.244;2022-07-11T03:34:50;5.00;;;1.30;;
5718;SDS011;2884;47.734;9.244;2022-07-11T03:37:34;1.27;;;1.17;;
5718;SDS011;2884;47.734;9.244;2022-07-11T03:40:00;4.90;;;1.23;;
5718;SDS011;2884;47.734;9.244;2022-07-11T03:42:26;3.30;;;1.80;;
5718;SDS011;2884;47.734;9.244;2022-07-11T03:44:52;2.40;;;1.53;;
5718;SDS011;2884;47.734;9.244;2022-07-11T03:47:17;3.23;;;1.30;;
5718;SDS011;2884;47.734;9.244;2022-07-11T03:49:43;3.57;;;1.50;;
5718;SDS011;2884;47.734;9.244;2022-07-11T03:52:09;3.63;;;1.20;;
5718;SDS011;2884;47.734;9.244;2022-07-11T03:54:35;1.83;;;1.30;;
5718;SDS011;2884;47.734;9.244;2022-07-11T03:57:00;8.07;;;1.70;;
5718;SDS011;2884;47.734;9.244;2022-07-11T03:59:26;3.73;;;1.40;;
5718;SDS011;2884;47.734;9.244;2022-07-11T04:01:51;2.10;;;1.10;;
5718;SDS011;2884;47.734;9.244;2022-07-11T04:04:17;2.53;;;1.33;;
5718;SDS011;2884;47.734;9.244;2022-07-11T04:06:43;2.70;;;1.40;;
5718;SDS011;2884;47.734;9.244;2022-07-11T04:09:09;1.83;;;1.43;;
5718;SDS011;2884;47.734;9.244;2022-07-11T04:11:35;1.13;;;0.97;;
5718;SDS011;2884;47.734;9.244;2022-07-11T04:14:01;6.00;;;1.30;;
5718;SDS011;2884;47.734;9.244;2022-07-11T04:16:27;4.13;;;1.53;;
5718;SDS011;2884;47.734;9.244;2022-07-11T04:18:52;5.90;;;1.23;;
5718;SDS011;2884;47.734;9.244;2022-07-11T04:21:18;2.87;;;1.27;;
5718;SDS011;2884;47.734;9.244;2022-07-11T04:23:44;1.80;;;1.17;;
5718;SDS011;2884;47.734;9.244;2022-07-11T04:26:09;1.10;;;1.00;;
5718;SDS011;2884;47.734;9.244;2022-07-11T04:28:35;7.07;;;1.87;;
5718;SDS011;2884;47.734;9.244;2022-07-11T04:31:00;3.00;;;1.30;;
5718;SDS011;2884;47.734;9.244;2022-07-11T04:33:26;2.37;;;1.23;;
5718;SDS011;2884;47.734;9.244;2022-07-11T04:35:52;3.07;;;1.20;;
5718;SDS011;2884;47.734;9.244;2022-07-11T04:38:18;5.63;;;1.20;;
5718;SDS011;2884;47.734;9.244;2022-07-11T04:40:46;4.87;;;1.40;;
5718;SDS011;2884;47.734;9.244;2022-07-11T04:43:13;2.70;;;1.20;;
5718;SDS011;2884;47.734;9.244;2022-07-11T04:45:39;7.60;;;1.43;;
5718;SDS011;2884;47.734;9.244;2022-07-11T04:48:05;4.73;;;1.20;;
5718;SDS011;2884;47.734;9.244;2022-07-11T04:50:31;9.90;;;1.27;;
5718;SDS011;2884;47.734;9.244;2022-07-11T04:52:56;3.07;;;1.20;;
5718;SDS011;2884;47.734;9.244;2022-07-11T04:55:22;1.90;;;1.17;;
5718;SDS011;2884;47.734;9.244;2022-07-11T04:57:47;2.87;;;1.50;;
5718;SDS011;2884;47.734;9.244;2022-07-11T05:00:14;3.53;;;1.30;;
5718;SDS011;2884;47.734;9.244;2022-07-11T05:02:39;1.67;;;0.97;;
5718;SDS011;2884;47.734;9.244;2022-07-11T05:05:05;1.10;;;0.83;;
5718;SDS011;2884;47.734;9.244;2022-07-11T05:07:31;14.00;;;1.73;;
5718;SDS011;2884;47.734;9.244;2022-07-11T05:09:57;4.77;;;1.00;;
5718;SDS011;2884;47.734;9.244;2022-07-11T05:12:23;3.13;;;1.13;;
5718;SDS011;2884;47.734;9.244;2022-07-11T05:14:48;2.43;;;0.80;;
5718;SDS011;2884;47.734;9.244;2022-07-11T05:17:14;7.27;;;1.43;;
5718;SDS011;2884;47.734;9.244;2022-07-11T05:19:40;2.80;;;1.13;;
5718;SDS011;2884;47.734;9.244;2022-07-11T05:22:06;8.67;;;1.20;;
5718;SDS011;2884;47.734;9.244;2022-07-11T05:24:31;2.70;;;1.10;;
5718;SDS011;2884;47.734;9.244;2022-07-11T05:26:57;3.80;;;1.00;;
5718;SDS011;2884;47.734;9.244;2022-07-11T05:29:22;1.43;;;0.90;;
5718;SDS011;2884;47.734;9.244;2022-07-11T05:31:48;8.60;;;1.23;;
5718;SDS011;2884;47.734;9.244;2022-07-11T05:34:16;2.80;;;1.30;;
5718;SDS011;2884;47.734;9.244;2022-07-11T05:36:42;1.97;;;1.00;;
5718;SDS011;2884;47.734;9.244;2022-07-11T05:39:08;3.53;;;1.23;;
5718;SDS011;2884;47.734;9.244;2022-07-11T05:41:34;2.27;;;1.67;;
5718;SDS011;2884;47.734;9.244;2022-07-11T05:44:00;3.43;;;1.20;;
5718;SDS011;2884;47.734;9.244;2022-07-11T05:46:25;1.67;;;1.00;;
5718;SDS011;2884;47.734;9.244;2022-07-11T05:48:51;1.90;;;1.60;;
5718;SDS011;2884;47.734;9.244;2022-07-11T05:51:16;4.10;;;1.67;;
5718;SDS011;2884;47.734;9.244;2022-07-11T05:53:44;1.40;;;0.97;;
5718;SDS011;2884;47.734;9.244;2022-07-11T05:56:10;2.60;;;1.23;;
5718;SDS011;2884;47.734;9.244;2022-07-11T05:58:35;1.80;;;1.13;;
5718;SDS011;2884;47.734;9.244;2022-07-11T06:01:01;2.47;;;1.07;;
5718;SDS011;2884;47.734;9.244;2022-07-11T06:03:26;0.80;;;0.80;;
5718;SDS011;2884;47.734;9.244;2022-07-11T06:05:52;4.10;;;1.10;;
5718;SDS011;2884;47.734;9.244;2022-07-11T06:08:17;3.83;;;1.40;;
5718;SDS011;2884;47.734;9.244;2022-07-11T06:11:02;6.93;;;1.50;;
5718;SDS011;2884;47.734;9.244;2022-07-11T06:13:27;2.87;;;1.17;;
5718;SDS011;2884;47.734;9.244;2022-07-11T06:15:55;3.17;;;1.20;;
5718;SDS011;2884;47.734;9.244;2022-07-11T06:18:21;2.07;;;1.10;;
5718;SDS011;2884;47.734;9.244;2022-07-11T06:20:46;3.60;;;1.23;;
5718;SDS011;2884;47.734;9.244;2022-07-11T06:23:12;4.27;;;0.97;;
5718;SDS011;2884;47.734;9.244;2022-07-11T06:25:37;2.90;;;1.40;;
5718;SDS011;2884;47.734;9.244;2022-07-11T06:28:03;9.27;;;1.20;;
5718;SDS011;2884;47.734;9.244;2022-07-11T06:30:30;3.70;;;1.10;;
5718;SDS011;2884;47.734;9.244;2022-07-11T06:32:57;3.40;;;1.10;;
5718;SDS011;2884;47.734;9.244;2022-07-11T06:35:23;2.80;;;1.07;;
5718;SDS011;2884;47.734;9.244;2022-07-11T06:37:48;4.13;;;1.40;;
5718;SDS011;2884;47.734;9.244;2022-07-11T06:40:14;4.20;;;1.47;;
5718;SDS011;2884;47.734;9.244;2022-07-11T06:42:42;5.90;;;1.10;;
5718;SDS011;2884;47.734;9.244;2022-07-11T06:45:08;2.43;;;1.23;;
5718;SDS011;2884;47.734;9.244;2022-07-11T06:47:34;3.53;;;1.47;;
5718;SDS011;2884;47.734;9.244;2022-07-11T06:50:00;1.33;;;0.87;;
5718;SDS011;2884;47.734;9.244;2022-07-11T06:52:25;1.63;;;1.00;;
5718;SDS011;2884;47.734;9.244;2022-07-11T06:54:51;5.97;;;1.30;;
5718;SDS011;2884;47.734;9.244;2022-07-11T06:57:17;2.30;;;1.30;;
5718;SDS011;2884;47.734;9.244;2022-07-11T06:59:42;3.47;;;1.20;;
5718;SDS011;2884;47.734;9.244;2022-07-11T07:02:08;6.03;;;1.60;;
5718;SDS011;2884;47.734;9.244;2022-07-11T07:04:33;4.00;;;1.10;;
5718;SDS011;2884;47.734;9.244;2022-07-11T07:06:59;1.60;;;0.97;;
5718;SDS011;2884;47.734;9.244;2022-07-11T07:09:25;5.03;;;1.57;;
5718;SDS011;2884;47.734;9.244;2022-07-11T07:11:54;3.07;;;1.13;;
5718;SDS011;2884;47.734;9.244;2022-07-11T07:14:20;4.00;;;1.10;;
5718;SDS011;2884;47.734;9.244;2022-07-11T07:16:46;4.93;;;1.20;;
5718;SDS011;2884;47.734;9.244;2022-07-11T07:19:12;1.97;;;0.93;;
5718;SDS011;2884;47.734;9.244;2022-07-11T07:21:38;3.00;;;1.27;;
5718;SDS011;2884;47.734;9.244;2022-07-11T07:24:04;2.03;;;1.07;;
5718;SDS011;2884;47.734;9.244;2022-07-11T07:26:30;2.10;;;0.90;;
5718;SDS011;2884;47.734;9.244;2022-07-11T07:28:56;2.87;;;1.07;;
5718;SDS011;2884;47.734;9.244;2022-07-11T07:31:22;3.30;;;0.93;;
5718;SDS011;2884;47.734;9.244;2022-07-11T07:33:48;1.17;;;0.90;;
5718;SDS011;2884;47.734;9.244;2022-07-11T07:36:14;2.80;;;0.80;;
5718;SDS011;2884;47.734;9.244;2022-07-11T07:38:41;1.70;;;0.80;;
5718;SDS011;2884;47.734;9.244;2022-07-11T07:41:09;2.20;;;0.70;;
5718;SDS011;2884;47.734;9.244;2022-07-11T07:43:35;0.73;;;0.73;;
5718;SDS011;2884;47.734;9.244;2022-07-11T07:46:01;1.27;;;0.77;;
5718;SDS011;2884;47.734;9.244;2022-07-11T07:48:27;3.63;;;0.80;;
5718;SDS011;2884;47.734;9.244;2022-07-11T07:50:52;2.40;;;0.80;;
5718;SDS011;2884;47.734;9.244;2022-07-11T07:53:19;3.77;;;1.00;;
5718;SDS011;2884;47.734;9.244;2022-07-11T07:55:44;4.97;;;1.00;;
5718;SDS011;2884;47.734;9.244;2022-07-11T07:58:10;1.30;;;0.70;;
5718;SDS011;2884;47.734;9.244;2022-07-11T08:00:35;2.47;;;0.90;;
5718;SDS011;2884;47.734;9.244;2022-07-11T08:03:20;2.10;;;1.10;;
5718;SDS011;2884;47.734;9.244;2022-07-11T08:05:45;2.23;;;0.90;;
5718;SDS011;2884;47.734;9.244;2022-07-11T08:08:11;1.73;;;0.77;;
5718;SDS011;2884;47.734;9.244;2022-07-11T08:10:36;2.83;;;0.80;;
5718;SDS011;2884;47.734;9.244;2022-07-11T08:13:02;1.37;;;0.60;;
5718;SDS011;2884;47.734;9.244;2022-07-11T08:15:28;5.23;;;0.70;;
5718;SDS011;2884;47.734;9.244;2022-07-11T08:17:53;1.27;;;0.77;;
5718;SDS011;2884;47.734;9.244;2022-07-11T08:20:19;3.37;;;1.10;;
5718;SDS011;2884;47.734;9.244;2022-07-11T08:22:45;2.17;;;0.70;;
5718;SDS011;2884;47.734;9.244;2022-07-11T08:25:10;2.50;;;0.60;;
5718;SDS011;2884;47.734;9.244;2022-07-11T08:27:36;2.60;;;1.07;;
5718;SDS011;2884;47.734;9.244;2022-07-11T08:30:04;2.10;;;0.80;;
5718;SDS011;2884;47.734;9.244;2022-07-11T08:32:30;3.70;;;0.90;;
5718;SDS011;2884;47.734;9.244;2022-07-11T08:34:56;2.57;;;0.90;;
5718;SDS011;2884;47.734;9.244;2022-07-11T08:37:21;1.37;;;0.63;;
5718;SDS011;2884;47.734;9.244;2022-07-11T08:39:47;1.33;;;0.67;;
5718;SDS011;2884;47.734;9.244;2022-07-11T08:42:18;1.63;;;0.70;;
5718;SDS011;2884;47.734;9.244;2022-07-11T08:44:45;1.93;;;0.77;;
5718;SDS011;2884;47.734;9.244;2022-07-11T08:47:11;0.70;;;0.57;;
5718;SDS011;2884;47.734;9.244;2022-07-11T08:49:37;3.40;;;1.00;;
5718;SDS011;2884;47.734;9.244;2022-07-11T08:52:04;1.00;;;0.63;;
5718;SDS011;2884;47.734;9.244;2022-07-11T08:54:30;0.77;;;0.70;;
5718;SDS011;2884;47.734;9.244;2022-07-11T08:56:56;1.57;;;0.77;;
5718;SDS011;2884;47.734;9.244;2022-07-11T08:59:22;1.43;;;0.90;;
5718;SDS011;2884;47.734;9.244;2022-07-11T09:01:48;1.90;;;0.70;;
5718;SDS011;2884;47.734;9.244;2022-07-11T09:04:15;2.23;;;0.80;;
5718;SDS011;2884;47.734;9.244;2022-07-11T09:06:41;3.23;;;0.80;;
5718;SDS011;2884;47.734;9.244;2022-07-11T09:09:06;1.27;;;1.00;;
5718;SDS011;2884;47.734;9.244;2022-07-11T09:11:50;0.63;;;0.63;;
5718;SDS011;2884;47.734;9.244;2022-07-11T09:14:29;0.77;;;0.67;;
5718;SDS011;2884;47.734;9.244;2022-07-11T09:19:26;2.10;;;0.67;;
5718;SDS011;2884;47.734;9.244;2022-07-11T09:21:57;1.03;;;0.80;;
5718;SDS011;2884;47.734;9.244;2022-07-11T09:24:55;1.83;;;0.87;;
5718;SDS011;2884;47.734;9.244;2022-07-11T09:27:46;0.97;;;0.60;;
5718;SDS011;2884;47.734;9.244;2022-07-11T09:30:26;1.93;;;1.00;;
5718;SDS011;2884;47.734;9.244;2022-07-11T09:32:54;3.53;;;0.67;;
5718;SDS011;2884;47.734;9.244;2022-07-11T09:35:21;1.13;;;0.60;;
5718;SDS011;2884;47.734;9.244;2022-07-11T09:37:56;0.60;;;0.60;;
5718;SDS011;2884;47.734;9.244;2022-07-11T09:40:22;1.10;;;0.60;;
5718;SDS011;2884;47.734;9.244;2022-07-11T09:42:55;0.80;;;0.60;;
5718;SDS011;2884;47.734;9.244;2022-07-11T09:45:22;1.17;;;0.70;;
5718;SDS011;2884;47.734;9.244;2022-07-11T09:47:51;1.57;;;0.70;;
5718;SDS011;2884;47.734;9.244;2022-07-11T09:50:18;6.13;;;0.60;;
5718;SDS011;2884;47.734;9.244;2022-07-11T09:55:31;0.67;;;0.60;;
5718;SDS011;2884;47.734;9.244;2022-07-11T09:57:58;0.60;;;0.60;;
5718;SDS011;2884;47.734;9.244;2022-07-11T10:00:23;1.20;;;0.60;;
5718;SDS011;2884;47.734;9.244;2022-07-11T10:02:50;1.57;;;0.60;;
5718;SDS011;2884;47.734;9.244;2022-07-11T10:05:17;1.53;;;0.67;;
5718;SDS011;2884;47.734;9.244;2022-07-11T10:07:42;0.90;;;0.80;;
5718;SDS011;2884;47.734;9.244;2022-07-11T10:10:08;1.23;;;0.60;;
5718;SDS011;2884;47.734;9.244;2022-07-11T10:12:38;0.57;;;0.50;;
5718;SDS011;2884;47.734;9.244;2022-07-11T10:15:08;1.13;;;0.60;;
5718;SDS011;2884;47.734;9.244;2022-07-11T10:29:00;1.90;;;0.70;;
5718;SDS011;2884;47.734;9.244;2022-07-11T10:31:27;0.63;;;0.50;;
5718;SDS011;2884;47.734;9.244;2022-07-11T10:34:02;0.60;;;0.60;;
5718;SDS011;2884;47.734;9.244;2022-07-11T10:36:29;1.00;;;0.60;;
5718;SDS011;2884;47.734;9.244;2022-07-11T10:39:12;1.10;;;0.80;;
5718;SDS011;2884;47.734;9.244;2022-07-11T10:41:41;1.27;;;0.50;;
5718;SDS011;2884;47.734;9.244;2022-07-11T10:44:07;2.60;;;0.70;;
5718;SDS011;2884;47.734;9.244;2022-07-11T10:46:33;1.30;;;0.70;;
5718;SDS011;2884;47.734;9.244;2022-07-11T10:59:27;3.43;;;0.93;;
5718;SDS011;2884;47.734;9.244;2022-07-11T11:07:38;0.50;;;0.50;;
5718;SDS011;2884;47.734;9.244;2022-07-11T11:15:34;0.90;;;0.57;;
5718;SDS011;2884;47.734;9.244;2022-07-11T11:23:30;0.63;;;0.50;;
5718;SDS011;2884;47.734;9.244;2022-07-11T11:26:05;1.90;;;1.13;;
5718;SDS011;2884;47.734;9.244;2022-07-11T11:28:34;8.60;;;0.70;;
5718;SDS011;2884;47.734;9.244;2022-07-11T11:31:01;2.53;;;0.97;;
5718;SDS011;2884;47.734;9.244;2022-07-11T11:33:28;1.83;;;0.60;;
5718;SDS011;2884;47.734;9.244;2022-07-11T11:36:05;2.00;;;0.67;;
5718;SDS011;2884;47.734;9.244;2022-07-11T11:38:33;1.33;;;0.73;;
5718;SDS011;2884;47.734;9.244;2022-07-11T11:41:09;1.83;;;0.70;;
5718;SDS011;2884;47.734;9.244;2022-07-11T11:44:00;0.50;;;0.50;;
5718;SDS011;2884;47.734;9.244;2022-07-11T11:48:59;1.63;;;0.70;;
5718;SDS011;2884;47.734;9.244;2022-07-11T11:51:30;0.80;;;0.60;;
5718;SDS011;2884;47.734;9.244;2022-07-11T11:53:58;0.87;;;0.70;;
5718;SDS011;2884;47.734;9.244;2022-07-11T11:56:25;2.50;;;0.70;;
5718;SDS011;2884;47.734;9.244;2022-07-11T11:59:04;2.30;;;0.80;;
5718;SDS011;2884;47.734;9.244;2022-07-11T12:01:41;1.00;;;0.90;;
5718;SDS011;2884;47.734;9.244;2022-07-11T12:04:09;1.80;;;0.70;;
5718;SDS011;2884;47.734;9.244;2022-07-11T12:06:37;4.07;;;0.90;;
5718;SDS011;2884;47.734;9.244;2022-07-11T12:11:35;1.43;;;0.70;;
5718;SDS011;2884;47.734;9.244;2022-07-11T12:14:08;0.80;;;0.60;;
5718;SDS011;2884;47.734;9.244;2022-07-11T12:16:35;1.00;;;0.90;;
5718;SDS011;2884;47.734;9.244;2022-07-11T12:21:35;3.73;;;0.70;;
5718;SDS011;2884;47.734;9.244;2022-07-11T12:24:05;1.20;;;0.70;;
5718;SDS011;2884;47.734;9.244;2022-07-11T12:26:32;1.00;;;0.90;;
5718;SDS011;2884;47.734;9.244;2022-07-11T12:29:03;3.73;;;0.83;;
5718;SDS011;2884;47.734;9.244;2022-07-11T12:39:37;3.77;;;0.87;;
5718;SDS011;2884;47.734;9.244;2022-07-11T12:47:40;1.63;;;0.50;;
5718;SDS011;2884;47.734;9.244;2022-07-11T12:52:40;0.70;;;0.60;;
5718;SDS011;2884;47.734;9.244;2022-07-11T12:55:07;0.90;;;0.60;;
5718;SDS011;2884;47.734;9.244;2022-07-11T12:57:36;0.80;;;0.70;;
5718;SDS011;2884;47.734;9.244;2022-07-11T13:00:13;1.00;;;0.87;;
5718;SDS011;2884;47.734;9.244;2022-07-11T13:02:47;2.53;;;0.60;;
5718;SDS011;2884;47.734;9.244;2022-07-11T13:05:14;0.50;;;0.50;;
5718;SDS011;2884;47.734;9.244;2022-07-11T13:07:40;1.63;;;0.50;;
5718;SDS011;2884;47.734;9.244;2022-07-11T13:10:26;0.83;;;0.50;;
5718;SDS011;2884;47.734;9.244;2022-07-11T13:12:53;4.53;;;1.00;;
5718;SDS011;2884;47.734;9.244;2022-07-11T13:15:20;1.47;;;0.63;;
5718;SDS011;2884;47.734;9.244;2022-07-11T13:17:47;2.00;;;0.70;;
5718;SDS011;2884;47.734;9.244;2022-07-11T13:20:14;1.17;;;0.60;;
5718;SDS011;2884;47.734;9.244;2022-07-11T13:22:42;0.60;;;0.60;;
5718;SDS011;2884;47.734;9.244;2022-07-11T13:25:09;0.70;;;0.70;;
5718;SDS011;2884;47.734;9.244;2022-07-11T13:27:38;3.30;;;0.77;;
5718;SDS011;2884;47.734;9.244;2022-07-11T13:30:06;0.60;;;0.60;;
5718;SDS011;2884;47.734;9.244;2022-07-11T13:32:42;0.90;;;0.67;;
5718;SDS011;2884;47.734;9.244;2022-07-11T13:35:09;2.40;;;0.80;;
5718;SDS011;2884;47.734;9.244;2022-07-11T13:37:34;1.67;;;0.80;;
5718;SDS011;2884;47.734;9.244;2022-07-11T13:40:04;2.13;;;0.70;;
5718;SDS011;2884;47.734;9.244;2022-07-11T13:42:30;0.90;;;0.70;;
5718;SDS011;2884;47.734;9.244;2022-07-11T13:45:00;2.50;;;0.80;;
5718;SDS011;2884;47.734;9.244;2022-07-11T13:47:26;1.03;;;0.90;;
5718;SDS011;2884;47.734;9.244;2022-07-11T13:49:52;0.73;;;0.60;;
5718;SDS011;2884;47.734;9.244;2022-07-11T13:52:17;1.20;;;0.90;;
5718;SDS011;2884;47.734;9.244;2022-07-11T13:54:43;0.60;;;0.60;;
5718;SDS011;2884;47.734;9.244;2022-07-11T13:57:09;2.23;;;0.77;;
5718;SDS011;2884;47.734;9.244;2022-07-11T13:59:34;0.87;;;0.60;;
5718;SDS011;2884;47.734;9.244;2022-07-11T14:02:01;1.27;;;0.60;;
5718;SDS011;2884;47.734;9.244;2022-07-11T14:04:27;1.87;;;0.80;;
5718;SDS011;2884;47.734;9.244;2022-07-11T14:06:53;1.23;;;0.67;;
5718;SDS011;2884;47.734;9.244;2022-07-11T14:09:19;2.40;;;0.80;;
5718;SDS011;2884;47.734;9.244;2022-07-11T14:11:45;5.50;;;0.83;;
5718;SDS011;2884;47.734;9.244;2022-07-11T14:14:10;5.07;;;1.00;;
5718;SDS011;2884;47.734;9.244;2022-07-11T14:16:36;0.80;;;0.80;;
5718;SDS011;2884;47.734;9.244;2022-07-11T14:19:02;3.83;;;0.60;;
5718;SDS011;2884;47.734;9.244;2022-07-11T14:21:31;2.10;;;0.80;;
5718;SDS011;2884;47.734;9.244;2022-07-11T14:23:57;8.43;;;0.80;;
5718;SDS011;2884;47.734;9.244;2022-07-11T14:26:24;2.63;;;0.90;;
5718;SDS011;2884;47.734;9.244;2022-07-11T14:28:50;0.70;;;0.70;;
5718;SDS011;2884;47.734;9.244;2022-07-11T14:31:16;0.87;;;0.67;;
5718;SDS011;2884;47.734;9.244;2022-07-11T14:33:41;2.00;;;0.90;;
5718;SDS011;2884;47.734;9.244;2022-07-11T14:36:07;1.63;;;0.80;;
5718;SDS011;2884;47.734;9.244;2022-07-11T14:38:33;1.10;;;0.90;;
5718;SDS011;2884;47.734;9.244;2022-07-11T14:40:59;2.57;;;0.97;;
5718;SDS011;2884;47.734;9.244;2022-07-11T14:43:25;1.57;;;1.10;;
5718;SDS011;2884;47.734;9.244;2022-07-11T14:45:55;1.63;;;0.90;;
5718;SDS011;2884;47.734;9.244;2022-07-11T14:48:20;1.47;;;0.90;;
5718;SDS011;2884;47.734;9.244;2022-07-11T14:50:46;2.37;;;0.70;;
5718;SDS011;2884;47.734;9.244;2022-07-11T14:53:15;1.80;;;1.40;;
5718;SDS011;2884;47.734;9.244;2022-07-11T14:55:41;4.17;;;1.30;;
5718;SDS011;2884;47.734;9.244;2022-07-11T14:58:06;1.57;;;0.90;;
5718;SDS011;2884;47.734;9.244;2022-07-11T15:00:32;0.90;;;0.80;;
5718;SDS011;2884;47.734;9.244;2022-07-11T15:02:58;0.80;;;0.70;;
5718;SDS011;2884;47.734;9.244;2022-07-11T15:05:42;1.37;;;0.80;;
5718;SDS011;2884;47.734;9.244;2022-07-11T15:08:08;1.30;;;0.90;;
5718;SDS011;2884;47.734;9.244;2022-07-11T15:10:52;1.07;;;0.70;;
5718;SDS011;2884;47.734;9.244;2022-07-11T15:13:36;1.70;;;0.80;;
5718;SDS011;2884;47.734;9.244;2022-07-11T15:16:02;2.13;;;0.80;;
5718;SDS011;2884;47.734;9.244;2022-07-11T15:18:28;1.40;;;0.83;;
5718;SDS011;2884;47.734;9.244;2022-07-11T15:20:54;2.60;;;0.93;;
5718;SDS011;2884;47.734;9.244;2022-07-11T15:23:20;1.57;;;0.90;;
5718;SDS011;2884;47.734;9.244;2022-07-11T15:25:48;1.03;;;0.70;;
5718;SDS011;2884;47.734;9.244;2022-07-11T15:28:13;0.80;;;0.70;;
5718;SDS011;2884;47.734;9.244;2022-07-11T15:30:39;2.60;;;1.40;;
5718;SDS011;2884;47.734;9.244;2022-07-11T15:33:05;1.37;;;0.80;;
5718;SDS011;2884;47.734;9.244;2022-07-11T15:35:30;0.53;;;0.53;;
5718;SDS011;2884;47.734;9.244;2022-07-11T15:37:56;0.67;;;0.60;;
5718;SDS011;2884;47.734;9.244;2022-07-11T15:40:21;5.20;;;0.70;;
5718;SDS011;2884;47.734;9.244;2022-07-11T15:42:47;0.60;;;0.60;;
5718;SDS011;2884;47.734;9.244;2022-07-11T15:45:13;0.60;;;0.60;;
5718;SDS011;2884;47.734;9.244;2022-07-11T15:47:38;3.60;;;0.77;;
5718;SDS011;2884;47.734;9.244;2022-07-11T15:50:04;0.60;;;0.60;;
5718;SDS011;2884;47.734;9.244;2022-07-11T15:52:30;2.13;;;0.67;;
5718;SDS011;2884;47.734;9.244;2022-07-11T15:54:56;0.50;;;0.50;;
5718;SDS011;2884;47.734;9.244;2022-07-11T15:57:21;0.90;;;0.70;;
5718;SDS011;2884;47.734;9.244;2022-07-11T15:59:47;2.40;;;0.60;;
5718;SDS011;2884;47.734;9.244;2022-07-11T16:02:12;3.20;;;0.70;;
5718;SDS011;2884;47.734;9.244;2022-07-11T16:04:38;3.20;;;0.77;;
5718;SDS011;2884;47.734;9.244;2022-07-11T16:07:03;2.93;;;1.00;;
5718;SDS011;2884;47.734;9.244;2022-07-11T16:09:29;0.70;;;0.60;;
5718;SDS011;2884;47.734;9.244;2022-07-11T16:11:54;1.27;;;0.90;;
5718;SDS011;2884;47.734;9.244;2022-07-11T16:14:20;3.13;;;1.00;;
5718;SDS011;2884;47.734;9.244;2022-07-11T16:16:45;1.53;;;0.70;;
5718;SDS011;2884;47.734;9.244;2022-07-11T16:19:11;0.80;;;0.50;;
5718;SDS011;2884;47.734;9.244;2022-07-11T16:21:37;0.60;;;0.60;;
5718;SDS011;2884;47.734;9.244;2022-07-11T16:24:03;0.70;;;0.60;;